Aeroporto :
LOGIN :

Iscrizione | Disclaimer

   EN    FR    IT 

 










Sommario :    VFR   VFR Marginale   IFR   IFR Intensivo   IFR Molto Intensivo
Visibilità : 
Base nubi : 
>= 8 km
>= 3000ft
5 / 8 km
1000 / 3000 ft
1500m / 5 km
500 / 1000 ft
800 / 1500m
200 / 500 ft
< 800m
< 200 ft
Simboli :   Temporali  Nebbia  Neve Forte  Precipitazioni Forti  Vento > 20 kt
SIGMETs :   Varie  Temporali  Ghiacco  Turbolenza  Onda orograficha  Ceneri Vulcaniche






- Altitudine del aeroporto : 19 ft
- Codice IATA : DJE


DTTJ - Djerba Zarzis

ULTIMO METAR :
  • 200400Z 03006KT 8000 NSC 13/06 Q1017

METARs OBSOLETI :
  • 200330Z 03006KT 8000 NSC 13/07 Q1017
  • 200300Z 03006KT 8000 NSC 13/07 Q1017
  • 200230Z AUTO 04004KT NCD 11/06 Q1017
  • 200200Z 06004KT CAVOK 12/05 Q1017 NOSIG
  • 200130Z 04006KT CAVOK 14/06 Q1017 NOSIG

TAF TAF DTTJ
Valido dal 20 a 00 ore il 21 a 00 ore UTC


192300Z 2000/2024 03005KT 9999 FEW026



MetMap, La meteo Aeronautica in un colpo d'occhio ! - Copyright ORBIFLY Dicembre 2007 - Disclaimer

ORBIFLY MET'MAP TEAM :

Programmazione e sviluppo : Alexandra Zaïnal
Concezione e sviluppo : Baudouin d'Aumeries
Co-Programmazione e sviluppo : Marc-Olivier Méhu
Supporto tecnico e logistico : Manuel Goepfert
Aiuto per la traduzione : Arnaldo La Scala

Contatto : metmap@orbifly.com




FONTI E CREDITI :

   NOAA